This is the latest recevied weather packets stored in our database for station/object KC5TIL-3. If no packets are shown the sender has not sent any weather packets the latest 10 day(s).
| Time | Temp. | Humidity | Pressure | Rain* | Wind** | Luminosity | Snow |
|---|---|---|---|---|---|---|---|
| 1787866779 | 36.11° C | 13% | 1010.8 hPa | 0 mm | 4.02 m/s, 98° | - | - |
| 1787866481 | 36.11° C | 13% | 1010.8 hPa | 0 mm | 2.24 m/s, 46° | - | - |
| 1787866183 | 36.11° C | 13% | 1011.8 hPa | 0 mm | 3.13 m/s, 18° | - | - |
| 1787865877 | 36.67° C | 13% | 1011.8 hPa | 0 mm | 2.68 m/s, 253° | - | - |
| 1787865578 | 35.56° C | 13% | 1011.8 hPa | 0 mm | 3.58 m/s, 13° | - | - |
| 1787865280 | 35.56° C | 13% | 1011.8 hPa | 0 mm | 4.47 m/s, 16° | - | - |
| 1787864979 | 36.11° C | 15% | 1011.8 hPa | 0 mm | 3.13 m/s, 12° | - | - |
| 1787864681 | 36.67° C | 13% | 1011.8 hPa | 0 mm | 2.68 m/s, 56° | - | - |
| 1787864383 | 37.22° C | 13% | 1011.8 hPa | 0 mm | 3.13 m/s, 37° | - | - |
| 1787864081 | 36.67° C | 13% | 1011.8 hPa | 0 mm | 3.13 m/s, 291° | - | - |
| 1787863783 | 36.67° C | 13% | 1011.8 hPa | 0 mm | 2.24 m/s, 337° | - | - |
| 1787863485 | 37.22° C | 15% | 1011.8 hPa | 0 mm | 2.24 m/s, 120° | - | - |
| 1787863184 | 36.67° C | 15% | 1011.8 hPa | 0 mm | 3.58 m/s, 35° | - | - |
| 1787862885 | 35.56° C | 16% | 1011.8 hPa | 0 mm | 4.47 m/s, 34° | - | - |
| 1787862587 | 35.56° C | 16% | 1011.8 hPa | 0 mm | 4.47 m/s, 26° | - | - |
| 1787862286 | 36.11° C | 16% | 1011.8 hPa | 0 mm | 2.68 m/s, 356° | - | - |
| 1787861988 | 36.11° C | 13% | 1011.8 hPa | 0 mm | 4.02 m/s, 49° | - | - |
| 1787861690 | 37.22° C | 15% | 1011.8 hPa | 0 mm | 3.13 m/s, 298° | - | - |
| 1787861388 | 36.11° C | 16% | 1011.8 hPa | 0 mm | 4.02 m/s, 33° | - | - |
| 1787861090 | 36.67° C | 15% | 1011.8 hPa | 0 mm | 3.13 m/s, 106° | - | - |
| 1787860792 | 36.67° C | 15% | 1011.8 hPa | 0 mm | 2.68 m/s, 331° | - | - |
| 1787860491 | 36.11° C | 15% | 1011.8 hPa | 0 mm | 2.24 m/s, 94° | - | - |
| 1787860192 | 36.11° C | 16% | 1011.8 hPa | 0 mm | 2.68 m/s, 351° | - | - |
| 1787859894 | 35.56° C | 16% | 1011.8 hPa | 0 mm | 2.68 m/s, 325° | - | - |
| 1787859593 | 35.56° C | 16% | 1011.8 hPa | 0 mm | 2.68 m/s, 295° | - | - |
* Rain latest hour (hover to see other rain measurements)
** Current wind speed in m/s (hover to see current wind gust speed)